sensor_id;sensor_type;location;lat;lon;timestamp;P1;durP1;ratioP1;P2;durP2;ratioP2
39214;SDS011;24932;51.746;14.334;2024-02-23T00:00:40;1.0;;;1.0;;
39214;SDS011;24932;51.746;14.334;2024-02-23T00:04:40;2.28;;;1.75;;
39214;SDS011;24932;51.746;14.334;2024-02-23T00:08:40;2.53;;;1.25;;
39214;SDS011;24932;51.746;14.334;2024-02-23T00:12:38;1.37;;;1.2;;
39214;SDS011;24932;51.746;14.334;2024-02-23T00:16:38;0.98;;;0.98;;
39214;SDS011;24932;51.746;14.334;2024-02-23T00:20:40;3.08;;;1.02;;
39214;SDS011;24932;51.746;14.334;2024-02-23T00:24:40;1.12;;;1.02;;
39214;SDS011;24932;51.746;14.334;2024-02-23T00:28:40;1.8;;;1.1;;
39214;SDS011;24932;51.746;14.334;2024-02-23T00:32:39;1.05;;;1.05;;
39214;SDS011;24932;51.746;14.334;2024-02-23T00:36:40;0.77;;;0.77;;
39214;SDS011;24932;51.746;14.334;2024-02-23T00:40:38;1.2;;;1.1;;
39214;SDS011;24932;51.746;14.334;2024-02-23T00:44:38;1.77;;;0.93;;
39214;SDS011;24932;51.746;14.334;2024-02-23T00:48:40;1.65;;;1.1;;
39214;SDS011;24932;51.746;14.334;2024-02-23T00:52:38;1.2;;;1.08;;
39214;SDS011;24932;51.746;14.334;2024-02-23T00:56:51;2.03;;;0.62;;
39214;SDS011;24932;51.746;14.334;2024-02-23T01:00:40;0.77;;;0.77;;
39214;SDS011;24932;51.746;14.334;2024-02-23T01:04:39;0.6;;;0.6;;
39214;SDS011;24932;51.746;14.334;2024-02-23T01:08:39;0.9;;;0.9;;
39214;SDS011;24932;51.746;14.334;2024-02-23T01:12:39;0.98;;;0.8;;
39214;SDS011;24932;51.746;14.334;2024-02-23T01:16:40;1.37;;;1.15;;
39214;SDS011;24932;51.746;14.334;2024-02-23T01:20:40;1.3;;;1.05;;
39214;SDS011;24932;51.746;14.334;2024-02-23T01:24:38;0.57;;;0.57;;
39214;SDS011;24932;51.746;14.334;2024-02-23T01:28:40;3.28;;;1.12;;
39214;SDS011;24932;51.746;14.334;2024-02-23T01:32:40;1.3;;;1.1;;
39214;SDS011;24932;51.746;14.334;2024-02-23T01:36:39;4.62;;;0.75;;
39214;SDS011;24932;51.746;14.334;2024-02-23T01:40:38;4.22;;;0.8;;
39214;SDS011;24932;51.746;14.334;2024-02-23T01:44:38;1.05;;;0.7;;
39214;SDS011;24932;51.746;14.334;2024-02-23T01:48:40;1.67;;;0.7;;
39214;SDS011;24932;51.746;14.334;2024-02-23T01:52:39;0.7;;;0.6;;
39214;SDS011;24932;51.746;14.334;2024-02-23T01:56:39;0.98;;;0.88;;
39214;SDS011;24932;51.746;14.334;2024-02-23T02:00:40;1.12;;;0.88;;
39214;SDS011;24932;51.746;14.334;2024-02-23T02:04:40;0.62;;;0.62;;
39214;SDS011;24932;51.746;14.334;2024-02-23T02:08:39;0.95;;;0.55;;
39214;SDS011;24932;51.746;14.334;2024-02-23T02:12:40;0.73;;;0.52;;
39214;SDS011;24932;51.746;14.334;2024-02-23T02:16:39;0.4;;;0.4;;
39214;SDS011;24932;51.746;14.334;2024-02-23T02:20:40;1.23;;;0.57;;
39214;SDS011;24932;51.746;14.334;2024-02-23T02:24:40;0.88;;;0.35;;
39214;SDS011;24932;51.746;14.334;2024-02-23T02:28:38;0.22;;;0.22;;
39214;SDS011;24932;51.746;14.334;2024-02-23T02:32:40;0.4;;;0.4;;
39214;SDS011;24932;51.746;14.334;2024-02-23T02:36:40;0.3;;;0.3;;
39214;SDS011;24932;51.746;14.334;2024-02-23T02:40:38;1.4;;;0.35;;
39214;SDS011;24932;51.746;14.334;2024-02-23T02:44:40;0.45;;;0.3;;
39214;SDS011;24932;51.746;14.334;2024-02-23T02:48:38;0.95;;;0.9;;
39214;SDS011;24932;51.746;14.334;2024-02-23T02:52:39;0.57;;;0.3;;
39214;SDS011;24932;51.746;14.334;2024-02-23T02:56:41;0.8;;;0.32;;
39214;SDS011;24932;51.746;14.334;2024-02-23T03:00:38;0.57;;;0.3;;
39214;SDS011;24932;51.746;14.334;2024-02-23T03:04:46;0.52;;;0.4;;
39214;SDS011;24932;51.746;14.334;2024-02-23T03:08:41;0.28;;;0.2;;
39214;SDS011;24932;51.746;14.334;2024-02-23T03:12:40;0.4;;;0.4;;
39214;SDS011;24932;51.746;14.334;2024-02-23T03:16:40;0.28;;;0.28;;
39214;SDS011;24932;51.746;14.334;2024-02-23T03:20:40;0.32;;;0.2;;
39214;SDS011;24932;51.746;14.334;2024-02-23T03:24:39;2.25;;;0.4;;
39214;SDS011;24932;51.746;14.334;2024-02-23T03:28:39;1.75;;;0.28;;
39214;SDS011;24932;51.746;14.334;2024-02-23T03:32:39;0.3;;;0.3;;
39214;SDS011;24932;51.746;14.334;2024-02-23T03:36:39;0.68;;;0.43;;
39214;SDS011;24932;51.746;14.334;2024-02-23T03:40:39;1.65;;;0.4;;
39214;SDS011;24932;51.746;14.334;2024-02-23T03:44:40;0.3;;;0.3;;
39214;SDS011;24932;51.746;14.334;2024-02-23T03:48:40;0.35;;;0.35;;
39214;SDS011;24932;51.746;14.334;2024-02-23T03:52:39;0.9;;;0.52;;
39214;SDS011;24932;51.746;14.334;2024-02-23T03:56:40;0.55;;;0.5;;
39214;SDS011;24932;51.746;14.334;2024-02-23T04:00:38;1.83;;;0.4;;
39214;SDS011;24932;51.746;14.334;2024-02-23T04:04:40;1.37;;;0.3;;
39214;SDS011;24932;51.746;14.334;2024-02-23T04:08:39;0.65;;;0.65;;
39214;SDS011;24932;51.746;14.334;2024-02-23T04:12:39;1.55;;;0.22;;
39214;SDS011;24932;51.746;14.334;2024-02-23T04:16:39;0.77;;;0.4;;
39214;SDS011;24932;51.746;14.334;2024-02-23T04:20:39;1.65;;;0.6;;
39214;SDS011;24932;51.746;14.334;2024-02-23T04:24:40;0.3;;;0.3;;
39214;SDS011;24932;51.746;14.334;2024-02-23T04:28:39;2.05;;;0.4;;
39214;SDS011;24932;51.746;14.334;2024-02-23T04:32:39;0.62;;;0.28;;
39214;SDS011;24932;51.746;14.334;2024-02-23T04:36:40;0.2;;;0.2;;
39214;SDS011;24932;51.746;14.334;2024-02-23T04:40:40;1.5;;;0.47;;
39214;SDS011;24932;51.746;14.334;2024-02-23T04:44:40;0.95;;;0.3;;
39214;SDS011;24932;51.746;14.334;2024-02-23T04:48:38;0.3;;;0.3;;
39214;SDS011;24932;51.746;14.334;2024-02-23T04:52:39;0.4;;;0.32;;
39214;SDS011;24932;51.746;14.334;2024-02-23T04:56:40;0.5;;;0.3;;
39214;SDS011;24932;51.746;14.334;2024-02-23T05:00:40;1.58;;;0.5;;
39214;SDS011;24932;51.746;14.334;2024-02-23T05:04:39;0.3;;;0.2;;
39214;SDS011;24932;51.746;14.334;2024-02-23T05:08:38;0.1;;;0.1;;
39214;SDS011;24932;51.746;14.334;2024-02-23T05:12:39;0.2;;;0.2;;
39214;SDS011;24932;51.746;14.334;2024-02-23T05:16:40;1.55;;;0.28;;
39214;SDS011;24932;51.746;14.334;2024-02-23T05:20:40;1.45;;;0.28;;
39214;SDS011;24932;51.746;14.334;2024-02-23T05:24:40;0.32;;;0.3;;
39214;SDS011;24932;51.746;14.334;2024-02-23T05:28:38;0.77;;;0.3;;
39214;SDS011;24932;51.746;14.334;2024-02-23T05:32:39;0.4;;;0.3;;
39214;SDS011;24932;51.746;14.334;2024-02-23T05:36:39;0.1;;;0.1;;
39214;SDS011;24932;51.746;14.334;2024-02-23T05:40:39;0.3;;;0.3;;
39214;SDS011;24932;51.746;14.334;2024-02-23T05:44:42;1.2;;;0.28;;
39214;SDS011;24932;51.746;14.334;2024-02-23T05:48:39;0.2;;;0.2;;
39214;SDS011;24932;51.746;14.334;2024-02-23T05:52:39;0.88;;;0.55;;
39214;SDS011;24932;51.746;14.334;2024-02-23T05:56:40;2.17;;;0.5;;
39214;SDS011;24932;51.746;14.334;2024-02-23T06:00:39;0.25;;;0.13;;
39214;SDS011;24932;51.746;14.334;2024-02-23T06:04:39;2.25;;;0.4;;
39214;SDS011;24932;51.746;14.334;2024-02-23T06:08:40;0.3;;;0.2;;
39214;SDS011;24932;51.746;14.334;2024-02-23T06:12:38;0.1;;;0.1;;
39214;SDS011;24932;51.746;14.334;2024-02-23T06:16:40;0.1;;;0.1;;
39214;SDS011;24932;51.746;14.334;2024-02-23T06:20:39;0.2;;;0.2;;
39214;SDS011;24932;51.746;14.334;2024-02-23T06:24:38;1.48;;;0.35;;
39214;SDS011;24932;51.746;14.334;2024-02-23T06:28:38;2.33;;;0.2;;
39214;SDS011;24932;51.746;14.334;2024-02-23T06:32:39;0.37;;;0.37;;
39214;SDS011;24932;51.746;14.334;2024-02-23T06:36:38;2.62;;;0.3;;
39214;SDS011;24932;51.746;14.334;2024-02-23T06:40:52;0.1;;;0.1;;
39214;SDS011;24932;51.746;14.334;2024-02-23T06:44:40;0.4;;;0.15;;
39214;SDS011;24932;51.746;14.334;2024-02-23T06:48:40;0.35;;;0.2;;
39214;SDS011;24932;51.746;14.334;2024-02-23T06:52:38;0.3;;;0.3;;
39214;SDS011;24932;51.746;14.334;2024-02-23T06:56:39;0.15;;;0.15;;
39214;SDS011;24932;51.746;14.334;2024-02-23T07:00:38;0.3;;;0.3;;
39214;SDS011;24932;51.746;14.334;2024-02-23T07:04:39;0.2;;;0.2;;
39214;SDS011;24932;51.746;14.334;2024-02-23T07:08:39;0.25;;;0.2;;
39214;SDS011;24932;51.746;14.334;2024-02-23T07:12:38;0.8;;;0.37;;
39214;SDS011;24932;51.746;14.334;2024-02-23T07:16:40;0.45;;;0.3;;
39214;SDS011;24932;51.746;14.334;2024-02-23T07:20:39;1.67;;;0.3;;
39214;SDS011;24932;51.746;14.334;2024-02-23T07:24:40;0.75;;;0.3;;
39214;SDS011;24932;51.746;14.334;2024-02-23T07:28:40;4.25;;;1.08;;
39214;SDS011;24932;51.746;14.334;2024-02-23T07:32:39;0.3;;;0.3;;
39214;SDS011;24932;51.746;14.334;2024-02-23T07:36:39;0.1;;;0.1;;
39214;SDS011;24932;51.746;14.334;2024-02-23T07:40:39;1.5;;;0.2;;
39214;SDS011;24932;51.746;14.334;2024-02-23T07:44:39;0.8;;;0.3;;
39214;SDS011;24932;51.746;14.334;2024-02-23T07:48:38;4.37;;;0.73;;
39214;SDS011;24932;51.746;14.334;2024-02-23T07:52:40;1.08;;;0.5;;
39214;SDS011;24932;51.746;14.334;2024-02-23T07:56:39;1.1;;;0.3;;
39214;SDS011;24932;51.746;14.334;2024-02-23T08:00:40;0.2;;;0.2;;
39214;SDS011;24932;51.746;14.334;2024-02-23T08:04:40;0.2;;;0.2;;
39214;SDS011;24932;51.746;14.334;2024-02-23T08:08:40;0.52;;;0.22;;
39214;SDS011;24932;51.746;14.334;2024-02-23T08:12:43;0.17;;;0.17;;
39214;SDS011;24932;51.746;14.334;2024-02-23T08:16:40;1.2;;;0.4;;
39214;SDS011;24932;51.746;14.334;2024-02-23T08:20:40;0.7;;;0.4;;
39214;SDS011;24932;51.746;14.334;2024-02-23T08:24:40;0.52;;;0.2;;
39214;SDS011;24932;51.746;14.334;2024-02-23T08:28:39;1.85;;;0.62;;
39214;SDS011;24932;51.746;14.334;2024-02-23T08:32:40;1.33;;;0.28;;
39214;SDS011;24932;51.746;14.334;2024-02-23T08:36:40;0.25;;;0.15;;
39214;SDS011;24932;51.746;14.334;2024-02-23T08:40:39;0.2;;;0.2;;
39214;SDS011;24932;51.746;14.334;2024-02-23T08:44:39;0.47;;;0.47;;
39214;SDS011;24932;51.746;14.334;2024-02-23T08:48:40;0.82;;;0.35;;
39214;SDS011;24932;51.746;14.334;2024-02-23T08:52:38;4.47;;;0.4;;
39214;SDS011;24932;51.746;14.334;2024-02-23T08:56:40;2.17;;;0.55;;
39214;SDS011;24932;51.746;14.334;2024-02-23T09:00:40;0.5;;;0.4;;
39214;SDS011;24932;51.746;14.334;2024-02-23T09:04:40;0.68;;;0.35;;
39214;SDS011;24932;51.746;14.334;2024-02-23T09:08:40;2.58;;;0.32;;
39214;SDS011;24932;51.746;14.334;2024-02-23T09:12:40;1.42;;;0.25;;
39214;SDS011;24932;51.746;14.334;2024-02-23T09:16:39;1.0;;;0.4;;
39214;SDS011;24932;51.746;14.334;2024-02-23T09:20:40;10.35;;;0.4;;
39214;SDS011;24932;51.746;14.334;2024-02-23T09:24:40;0.37;;;0.37;;
39214;SDS011;24932;51.746;14.334;2024-02-23T09:28:40;0.9;;;0.22;;
39214;SDS011;24932;51.746;14.334;2024-02-23T09:32:38;0.28;;;0.2;;
39214;SDS011;24932;51.746;14.334;2024-02-23T09:36:39;0.2;;;0.2;;
39214;SDS011;24932;51.746;14.334;2024-02-23T09:40:39;0.1;;;0.1;;
39214;SDS011;24932;51.746;14.334;2024-02-23T09:44:39;0.4;;;0.2;;
39214;SDS011;24932;51.746;14.334;2024-02-23T09:48:42;0.3;;;0.2;;
39214;SDS011;24932;51.746;14.334;2024-02-23T09:52:39;0.4;;;0.13;;
39214;SDS011;24932;51.746;14.334;2024-02-23T09:56:39;1.85;;;0.2;;
39214;SDS011;24932;51.746;14.334;2024-02-23T10:00:40;0.1;;;0.1;;
39214;SDS011;24932;51.746;14.334;2024-02-23T10:04:40;1.45;;;0.2;;
39214;SDS011;24932;51.746;14.334;2024-02-23T10:08:39;0.1;;;0.1;;
39214;SDS011;24932;51.746;14.334;2024-02-23T10:12:39;0.45;;;0.35;;
39214;SDS011;24932;51.746;14.334;2024-02-23T10:16:40;1.0;;;0.45;;
39214;SDS011;24932;51.746;14.334;2024-02-23T10:20:40;0.2;;;0.2;;
39214;SDS011;24932;51.746;14.334;2024-02-23T10:24:41;0.47;;;0.1;;
39214;SDS011;24932;51.746;14.334;2024-02-23T10:28:40;1.37;;;0.6;;
39214;SDS011;24932;51.746;14.334;2024-02-23T10:32:39;0.7;;;0.32;;
39214;SDS011;24932;51.746;14.334;2024-02-23T10:36:40;0.2;;;0.2;;
39214;SDS011;24932;51.746;14.334;2024-02-23T10:40:38;2.5;;;0.2;;
39214;SDS011;24932;51.746;14.334;2024-02-23T10:44:40;2.65;;;0.57;;
39214;SDS011;24932;51.746;14.334;2024-02-23T10:48:40;2.37;;;0.4;;
39214;SDS011;24932;51.746;14.334;2024-02-23T10:52:40;0.95;;;0.37;;
39214;SDS011;24932;51.746;14.334;2024-02-23T10:56:39;1.08;;;0.2;;
39214;SDS011;24932;51.746;14.334;2024-02-23T11:00:39;0.95;;;0.73;;
39214;SDS011;24932;51.746;14.334;2024-02-23T11:04:39;2.15;;;0.3;;
39214;SDS011;24932;51.746;14.334;2024-02-23T11:08:40;0.17;;;0.17;;
39214;SDS011;24932;51.746;14.334;2024-02-23T11:12:40;1.02;;;0.22;;
39214;SDS011;24932;51.746;14.334;2024-02-23T11:16:39;1.17;;;0.2;;
39214;SDS011;24932;51.746;14.334;2024-02-23T11:20:40;0.73;;;0.25;;
39214;SDS011;24932;51.746;14.334;2024-02-23T11:24:42;1.87;;;0.4;;
39214;SDS011;24932;51.746;14.334;2024-02-23T11:28:41;0.3;;;0.2;;
39214;SDS011;24932;51.746;14.334;2024-02-23T11:32:40;0.3;;;0.2;;
39214;SDS011;24932;51.746;14.334;2024-02-23T11:36:39;1.52;;;0.4;;
39214;SDS011;24932;51.746;14.334;2024-02-23T11:40:40;1.83;;;0.25;;
39214;SDS011;24932;51.746;14.334;2024-02-23T11:44:39;0.1;;;0.1;;
39214;SDS011;24932;51.746;14.334;2024-02-23T11:48:38;0.95;;;0.32;;
39214;SDS011;24932;51.746;14.334;2024-02-23T11:52:39;0.3;;;0.3;;
39214;SDS011;24932;51.746;14.334;2024-02-23T11:56:40;0.98;;;0.3;;
39214;SDS011;24932;51.746;14.334;2024-02-23T12:00:40;0.4;;;0.2;;
39214;SDS011;24932;51.746;14.334;2024-02-23T12:04:39;0.75;;;0.22;;
39214;SDS011;24932;51.746;14.334;2024-02-23T12:08:40;0.4;;;0.35;;
39214;SDS011;24932;51.746;14.334;2024-02-23T12:12:39;2.37;;;0.8;;
39214;SDS011;24932;51.746;14.334;2024-02-23T12:16:40;2.15;;;0.4;;
39214;SDS011;24932;51.746;14.334;2024-02-23T12:20:40;1.33;;;0.2;;
39214;SDS011;24932;51.746;14.334;2024-02-23T12:24:40;0.1;;;0.1;;
39214;SDS011;24932;51.746;14.334;2024-02-23T12:28:40;0.1;;;0.1;;
39214;SDS011;24932;51.746;14.334;2024-02-23T12:32:40;1.55;;;0.3;;
39214;SDS011;24932;51.746;14.334;2024-02-23T12:36:38;0.88;;;0.4;;
39214;SDS011;24932;51.746;14.334;2024-02-23T12:40:39;1.45;;;0.6;;
39214;SDS011;24932;51.746;14.334;2024-02-23T12:44:40;0.95;;;0.4;;
39214;SDS011;24932;51.746;14.334;2024-02-23T12:48:40;2.33;;;0.5;;
39214;SDS011;24932;51.746;14.334;2024-02-23T12:52:40;1.45;;;0.32;;
39214;SDS011;24932;51.746;14.334;2024-02-23T12:56:39;0.73;;;0.32;;
39214;SDS011;24932;51.746;14.334;2024-02-23T13:00:39;0.82;;;0.3;;
39214;SDS011;24932;51.746;14.334;2024-02-23T13:04:38;0.15;;;0.15;;
39214;SDS011;24932;51.746;14.334;2024-02-23T13:08:40;0.62;;;0.35;;
39214;SDS011;24932;51.746;14.334;2024-02-23T13:12:40;0.35;;;0.3;;
39214;SDS011;24932;51.746;14.334;2024-02-23T13:16:38;0.6;;;0.32;;
39214;SDS011;24932;51.746;14.334;2024-02-23T13:20:40;1.15;;;0.3;;
39214;SDS011;24932;51.746;14.334;2024-02-23T13:24:40;0.68;;;0.3;;
39214;SDS011;24932;51.746;14.334;2024-02-23T13:28:38;2.5;;;0.35;;
39214;SDS011;24932;51.746;14.334;2024-02-23T13:32:40;5.1;;;0.5;;
39214;SDS011;24932;51.746;14.334;2024-02-23T13:36:38;0.8;;;0.4;;
39214;SDS011;24932;51.746;14.334;2024-02-23T13:40:38;0.73;;;0.47;;
39214;SDS011;24932;51.746;14.334;2024-02-23T13:44:40;1.1;;;0.25;;
39214;SDS011;24932;51.746;14.334;2024-02-23T13:48:39;1.1;;;0.25;;
39214;SDS011;24932;51.746;14.334;2024-02-23T13:52:38;0.95;;;0.4;;
39214;SDS011;24932;51.746;14.334;2024-02-23T13:56:39;2.7;;;0.32;;
39214;SDS011;24932;51.746;14.334;2024-02-23T14:00:39;0.62;;;0.4;;
39214;SDS011;24932;51.746;14.334;2024-02-23T14:04:39;1.52;;;0.6;;
39214;SDS011;24932;51.746;14.334;2024-02-23T14:08:40;1.25;;;0.5;;
39214;SDS011;24932;51.746;14.334;2024-02-23T14:12:40;1.73;;;0.4;;
39214;SDS011;24932;51.746;14.334;2024-02-23T14:16:40;0.95;;;0.3;;
39214;SDS011;24932;51.746;14.334;2024-02-23T14:20:40;1.85;;;0.5;;
39214;SDS011;24932;51.746;14.334;2024-02-23T14:24:39;1.65;;;0.5;;
39214;SDS011;24932;51.746;14.334;2024-02-23T14:28:40;1.75;;;0.3;;
39214;SDS011;24932;51.746;14.334;2024-02-23T14:32:39;2.75;;;0.4;;
39214;SDS011;24932;51.746;14.334;2024-02-23T14:36:39;1.48;;;0.4;;
39214;SDS011;24932;51.746;14.334;2024-02-23T14:40:38;3.03;;;0.3;;
39214;SDS011;24932;51.746;14.334;2024-02-23T14:44:39;0.35;;;0.3;;
39214;SDS011;24932;51.746;14.334;2024-02-23T14:48:38;0.52;;;0.3;;
39214;SDS011;24932;51.746;14.334;2024-02-23T14:52:40;0.85;;;0.4;;
39214;SDS011;24932;51.746;14.334;2024-02-23T14:56:40;1.48;;;0.3;;
39214;SDS011;24932;51.746;14.334;2024-02-23T15:00:40;2.55;;;0.43;;
39214;SDS011;24932;51.746;14.334;2024-02-23T15:04:40;0.9;;;0.32;;
39214;SDS011;24932;51.746;14.334;2024-02-23T15:08:38;1.95;;;0.37;;
39214;SDS011;24932;51.746;14.334;2024-02-23T15:12:38;0.45;;;0.2;;
39214;SDS011;24932;51.746;14.334;2024-02-23T15:16:38;1.83;;;0.57;;
39214;SDS011;24932;51.746;14.334;2024-02-23T15:20:40;3.25;;;0.7;;
39214;SDS011;24932;51.746;14.334;2024-02-23T15:24:39;1.87;;;0.4;;
39214;SDS011;24932;51.746;14.334;2024-02-23T15:28:40;2.53;;;0.52;;
39214;SDS011;24932;51.746;14.334;2024-02-23T15:32:40;1.75;;;0.5;;
39214;SDS011;24932;51.746;14.334;2024-02-23T15:36:39;1.8;;;1.05;;
39214;SDS011;24932;51.746;14.334;2024-02-23T15:40:40;1.4;;;0.37;;
39214;SDS011;24932;51.746;14.334;2024-02-23T15:44:38;4.5;;;0.65;;
39214;SDS011;24932;51.746;14.334;2024-02-23T15:48:39;3.8;;;0.6;;
39214;SDS011;24932;51.746;14.334;2024-02-23T15:52:40;2.87;;;0.95;;
39214;SDS011;24932;51.746;14.334;2024-02-23T15:56:40;2.45;;;0.75;;
39214;SDS011;24932;51.746;14.334;2024-02-23T16:00:40;2.67;;;0.93;;
39214;SDS011;24932;51.746;14.334;2024-02-23T16:04:40;1.77;;;0.68;;
39214;SDS011;24932;51.746;14.334;2024-02-23T16:08:40;3.53;;;0.8;;
39214;SDS011;24932;51.746;14.334;2024-02-23T16:12:38;2.0;;;0.62;;
39214;SDS011;24932;51.746;14.334;2024-02-23T16:16:39;2.4;;;0.85;;
39214;SDS011;24932;51.746;14.334;2024-02-23T16:20:39;3.05;;;0.85;;
39214;SDS011;24932;51.746;14.334;2024-02-23T16:24:39;1.12;;;0.65;;
39214;SDS011;24932;51.746;14.334;2024-02-23T16:28:38;4.75;;;0.98;;
39214;SDS011;24932;51.746;14.334;2024-02-23T16:32:40;1.98;;;0.93;;
39214;SDS011;24932;51.746;14.334;2024-02-23T16:36:39;1.05;;;0.82;;
39214;SDS011;24932;51.746;14.334;2024-02-23T16:40:39;2.83;;;1.02;;
39214;SDS011;24932;51.746;14.334;2024-02-23T16:44:39;2.87;;;1.25;;
39214;SDS011;24932;51.746;14.334;2024-02-23T16:48:40;4.4;;;1.5;;
39214;SDS011;24932;51.746;14.334;2024-02-23T16:52:39;2.4;;;1.35;;
39214;SDS011;24932;51.746;14.334;2024-02-23T16:56:39;2.33;;;1.42;;
39214;SDS011;24932;51.746;14.334;2024-02-23T17:00:40;3.85;;;1.5;;
39214;SDS011;24932;51.746;14.334;2024-02-23T17:04:39;3.35;;;1.87;;
39214;SDS011;24932;51.746;14.334;2024-02-23T17:08:39;1.98;;;1.65;;
39214;SDS011;24932;51.746;14.334;2024-02-23T17:12:40;7.57;;;2.33;;
39214;SDS011;24932;51.746;14.334;2024-02-23T17:16:40;3.55;;;2.12;;
39214;SDS011;24932;51.746;14.334;2024-02-23T17:20:38;8.9;;;2.67;;
39214;SDS011;24932;51.746;14.334;2024-02-23T17:24:39;5.6;;;3.1;;
39214;SDS011;24932;51.746;14.334;2024-02-23T17:28:40;10.38;;;3.47;;
39214;SDS011;24932;51.746;14.334;2024-02-23T17:32:39;4.75;;;2.9;;
39214;SDS011;24932;51.746;14.334;2024-02-23T17:36:40;4.9;;;2.67;;
39214;SDS011;24932;51.746;14.334;2024-02-23T17:40:39;9.48;;;3.17;;
39214;SDS011;24932;51.746;14.334;2024-02-23T17:44:39;4.25;;;3.03;;
39214;SDS011;24932;51.746;14.334;2024-02-23T17:48:39;10.1;;;2.95;;
39214;SDS011;24932;51.746;14.334;2024-02-23T17:52:40;4.93;;;2.22;;
39214;SDS011;24932;51.746;14.334;2024-02-23T17:56:40;5.7;;;2.37;;
39214;SDS011;24932;51.746;14.334;2024-02-23T18:00:39;6.62;;;2.62;;
39214;SDS011;24932;51.746;14.334;2024-02-23T18:04:40;11.7;;;4.53;;
39214;SDS011;24932;51.746;14.334;2024-02-23T18:08:39;14.43;;;4.9;;
39214;SDS011;24932;51.746;14.334;2024-02-23T18:12:39;12.27;;;5.32;;
39214;SDS011;24932;51.746;14.334;2024-02-23T18:16:39;8.3;;;4.18;;
39214;SDS011;24932;51.746;14.334;2024-02-23T18:20:39;11.55;;;4.12;;
39214;SDS011;24932;51.746;14.334;2024-02-23T18:24:40;8.95;;;4.47;;
39214;SDS011;24932;51.746;14.334;2024-02-23T18:28:40;10.63;;;5.25;;
39214;SDS011;24932;51.746;14.334;2024-02-23T18:32:41;10.25;;;5.25;;
39214;SDS011;24932;51.746;14.334;2024-02-23T18:36:40;11.45;;;5.03;;
39214;SDS011;24932;51.746;14.334;2024-02-23T18:40:40;12.7;;;5.05;;
39214;SDS011;24932;51.746;14.334;2024-02-23T18:44:39;15.5;;;5.4;;
39214;SDS011;24932;51.746;14.334;2024-02-23T18:48:40;13.38;;;5.72;;
39214;SDS011;24932;51.746;14.334;2024-02-23T18:52:40;12.32;;;5.5;;
39214;SDS011;24932;51.746;14.334;2024-02-23T18:56:40;9.45;;;4.95;;
39214;SDS011;24932;51.746;14.334;2024-02-23T19:00:39;13.23;;;5.5;;
39214;SDS011;24932;51.746;14.334;2024-02-23T19:04:39;13.9;;;6.6;;
39214;SDS011;24932;51.746;14.334;2024-02-23T19:08:39;11.25;;;5.62;;
39214;SDS011;24932;51.746;14.334;2024-02-23T19:12:40;11.2;;;6.35;;
39214;SDS011;24932;51.746;14.334;2024-02-23T19:16:44;18.02;;;7.05;;
39214;SDS011;24932;51.746;14.334;2024-02-23T19:20:39;17.62;;;7.2;;
39214;SDS011;24932;51.746;14.334;2024-02-23T19:24:40;12.95;;;6.7;;
39214;SDS011;24932;51.746;14.334;2024-02-23T19:28:40;17.4;;;6.78;;
39214;SDS011;24932;51.746;14.334;2024-02-23T19:32:39;16.95;;;7.15;;
39214;SDS011;24932;51.746;14.334;2024-02-23T19:36:39;14.52;;;7.28;;
39214;SDS011;24932;51.746;14.334;2024-02-23T19:40:39;14.87;;;7.25;;
39214;SDS011;24932;51.746;14.334;2024-02-23T19:44:38;12.05;;;6.85;;
39214;SDS011;24932;51.746;14.334;2024-02-23T19:48:39;12.1;;;6.35;;
39214;SDS011;24932;51.746;14.334;2024-02-23T19:52:40;13.5;;;5.03;;
39214;SDS011;24932;51.746;14.334;2024-02-23T19:56:41;12.2;;;5.57;;
39214;SDS011;24932;51.746;14.334;2024-02-23T20:00:39;13.32;;;5.57;;
39214;SDS011;24932;51.746;14.334;2024-02-23T20:04:40;11.12;;;5.95;;
39214;SDS011;24932;51.746;14.334;2024-02-23T20:08:39;13.98;;;5.87;;
39214;SDS011;24932;51.746;14.334;2024-02-23T20:12:40;10.75;;;6.45;;
39214;SDS011;24932;51.746;14.334;2024-02-23T20:16:40;14.15;;;5.93;;
39214;SDS011;24932;51.746;14.334;2024-02-23T20:20:38;14.23;;;5.47;;
39214;SDS011;24932;51.746;14.334;2024-02-23T20:24:43;16.23;;;5.62;;
39214;SDS011;24932;51.746;14.334;2024-02-23T20:28:39;15.1;;;7.9;;
39214;SDS011;24932;51.746;14.334;2024-02-23T20:32:40;14.38;;;6.65;;
39214;SDS011;24932;51.746;14.334;2024-02-23T20:36:38;11.5;;;6.22;;
39214;SDS011;24932;51.746;14.334;2024-02-23T20:40:40;15.5;;;7.68;;
39214;SDS011;24932;51.746;14.334;2024-02-23T20:44:39;12.88;;;5.75;;
39214;SDS011;24932;51.746;14.334;2024-02-23T20:48:40;15.7;;;6.47;;
39214;SDS011;24932;51.746;14.334;2024-02-23T20:52:40;16.6;;;6.8;;
39214;SDS011;24932;51.746;14.334;2024-02-23T20:56:38;12.73;;;6.97;;
39214;SDS011;24932;51.746;14.334;2024-02-23T21:00:38;14.1;;;6.47;;
39214;SDS011;24932;51.746;14.334;2024-02-23T21:04:38;17.02;;;5.78;;
39214;SDS011;24932;51.746;14.334;2024-02-23T21:08:39;13.77;;;6.97;;
39214;SDS011;24932;51.746;14.334;2024-02-23T21:12:39;13.75;;;6.15;;
39214;SDS011;24932;51.746;14.334;2024-02-23T21:16:40;15.1;;;6.5;;
39214;SDS011;24932;51.746;14.334;2024-02-23T21:20:40;11.55;;;5.4;;
39214;SDS011;24932;51.746;14.334;2024-02-23T21:24:42;9.05;;;4.53;;
39214;SDS011;24932;51.746;14.334;2024-02-23T21:28:39;11.7;;;5.45;;
39214;SDS011;24932;51.746;14.334;2024-02-23T21:32:40;15.98;;;4.7;;
39214;SDS011;24932;51.746;14.334;2024-02-23T21:36:39;12.25;;;5.78;;
39214;SDS011;24932;51.746;14.334;2024-02-23T21:40:39;10.48;;;5.12;;
39214;SDS011;24932;51.746;14.334;2024-02-23T21:44:40;25.27;;;5.8;;
39214;SDS011;24932;51.746;14.334;2024-02-23T21:48:40;11.88;;;4.87;;
39214;SDS011;24932;51.746;14.334;2024-02-23T21:52:40;12.3;;;5.55;;
39214;SDS011;24932;51.746;14.334;2024-02-23T21:56:40;8.9;;;5.1;;
39214;SDS011;24932;51.746;14.334;2024-02-23T22:00:40;10.4;;;5.55;;
39214;SDS011;24932;51.746;14.334;2024-02-23T22:04:38;10.82;;;5.55;;
39214;SDS011;24932;51.746;14.334;2024-02-23T22:08:39;9.8;;;5.05;;
39214;SDS011;24932;51.746;14.334;2024-02-23T22:12:39;10.07;;;5.28;;
39214;SDS011;24932;51.746;14.334;2024-02-23T22:16:39;13.38;;;4.97;;
39214;SDS011;24932;51.746;14.334;2024-02-23T22:20:38;11.3;;;5.12;;
39214;SDS011;24932;51.746;14.334;2024-02-23T22:24:40;12.32;;;5.5;;
39214;SDS011;24932;51.746;14.334;2024-02-23T22:28:41;12.3;;;5.72;;
39214;SDS011;24932;51.746;14.334;2024-02-23T22:32:39;11.23;;;4.9;;
39214;SDS011;24932;51.746;14.334;2024-02-23T22:36:39;11.52;;;5.55;;
39214;SDS011;24932;51.746;14.334;2024-02-23T22:40:40;12.9;;;5.95;;
39214;SDS011;24932;51.746;14.334;2024-02-23T22:44:39;21.73;;;6.03;;
39214;SDS011;24932;51.746;14.334;2024-02-23T22:48:40;8.48;;;5.5;;
39214;SDS011;24932;51.746;14.334;2024-02-23T22:52:39;13.0;;;6.0;;
39214;SDS011;24932;51.746;14.334;2024-02-23T22:56:40;13.55;;;4.62;;
39214;SDS011;24932;51.746;14.334;2024-02-23T23:00:40;10.7;;;5.28;;
39214;SDS011;24932;51.746;14.334;2024-02-23T23:04:40;11.4;;;5.43;;
39214;SDS011;24932;51.746;14.334;2024-02-23T23:08:40;12.02;;;5.53;;
39214;SDS011;24932;51.746;14.334;2024-02-23T23:12:40;10.15;;;5.28;;
39214;SDS011;24932;51.746;14.334;2024-02-23T23:16:39;12.77;;;5.72;;
39214;SDS011;24932;51.746;14.334;2024-02-23T23:20:40;11.7;;;5.25;;
39214;SDS011;24932;51.746;14.334;2024-02-23T23:24:39;13.38;;;5.45;;
39214;SDS011;24932;51.746;14.334;2024-02-23T23:28:39;11.75;;;5.68;;
39214;SDS011;24932;51.746;14.334;2024-02-23T23:32:39;13.3;;;5.43;;
39214;SDS011;24932;51.746;14.334;2024-02-23T23:36:39;11.32;;;5.4;;
39214;SDS011;24932;51.746;14.334;2024-02-23T23:40:40;12.3;;;5.93;;
39214;SDS011;24932;51.746;14.334;2024-02-23T23:44:40;12.73;;;5.43;;
39214;SDS011;24932;51.746;14.334;2024-02-23T23:48:40;13.25;;;5.43;;
39214;SDS011;24932;51.746;14.334;2024-02-23T23:52:39;8.23;;;4.87;;
39214;SDS011;24932;51.746;14.334;2024-02-23T23:56:40;12.0;;;5.28;;
